sensor_id;sensor_type;location;lat;lon;timestamp;pressure;altitude;pressure_sealevel;temperature;humidity
64340;BME280;63709;53.258;-8.814;2023-04-02T00:01:18;102663.59;;;9.24;100.00
64340;BME280;63709;53.258;-8.814;2023-04-02T00:08:59;102674.75;;;9.34;100.00
64340;BME280;63709;53.258;-8.814;2023-04-02T00:11:35;102652.56;;;9.11;100.00
64340;BME280;63709;53.258;-8.814;2023-04-02T00:14:03;102668.19;;;9.20;100.00
64340;BME280;63709;53.258;-8.814;2023-04-02T00:16:32;102671.94;;;9.15;100.00
64340;BME280;63709;53.258;-8.814;2023-04-02T00:19:01;102663.38;;;9.07;100.00
64340;BME280;63709;53.258;-8.814;2023-04-02T00:21:31;102649.00;;;8.89;100.00
64340;BME280;63709;53.258;-8.814;2023-04-02T00:24:01;102682.22;;;9.02;100.00
64340;BME280;63709;53.258;-8.814;2023-04-02T00:26:42;102671.88;;;8.94;100.00
64340;BME280;63709;53.258;-8.814;2023-04-02T00:29:13;102681.19;;;9.06;100.00
64340;BME280;63709;53.258;-8.814;2023-04-02T00:31:51;102687.25;;;9.10;100.00
64340;BME280;63709;53.258;-8.814;2023-04-02T00:34:22;102671.78;;;8.96;100.00
64340;BME280;63709;53.258;-8.814;2023-04-02T00:36:51;102690.84;;;9.09;100.00
64340;BME280;63709;53.258;-8.814;2023-04-02T00:39:25;102697.34;;;9.02;100.00
64340;BME280;63709;53.258;-8.814;2023-04-02T00:41:56;102682.41;;;8.98;100.00
64340;BME280;63709;53.258;-8.814;2023-04-02T00:44:37;102698.31;;;8.99;100.00
64340;BME280;63709;53.258;-8.814;2023-04-02T00:47:20;102714.13;;;9.04;100.00
64340;BME280;63709;53.258;-8.814;2023-04-02T00:49:53;102661.56;;;8.62;100.00
64340;BME280;63709;53.258;-8.814;2023-04-02T00:52:24;102705.56;;;8.72;100.00
64340;BME280;63709;53.258;-8.814;2023-04-02T00:57:42;102710.53;;;8.81;100.00
64340;BME280;63709;53.258;-8.814;2023-04-02T01:00:27;102732.00;;;8.77;100.00
64340;BME280;63709;53.258;-8.814;2023-04-02T01:05:49;102746.13;;;8.79;100.00
64340;BME280;63709;53.258;-8.814;2023-04-02T01:13:27;102739.59;;;8.87;100.00
64340;BME280;63709;53.258;-8.814;2023-04-02T01:23:56;102751.19;;;8.86;100.00
64340;BME280;63709;53.258;-8.814;2023-04-02T01:30:20;102772.81;;;8.77;100.00
64340;BME280;63709;53.258;-8.814;2023-04-02T01:32:17;102767.81;;;8.68;100.00
64340;BME280;63709;53.258;-8.814;2023-04-02T01:34:48;102772.75;;;8.79;100.00
64340;BME280;63709;53.258;-8.814;2023-04-02T01:45:17;102795.59;;;8.61;100.00
64340;BME280;63709;53.258;-8.814;2023-04-02T01:47:45;102797.41;;;8.59;100.00
64340;BME280;63709;53.258;-8.814;2023-04-02T01:50:29;102811.81;;;8.53;100.00
64340;BME280;63709;53.258;-8.814;2023-04-02T01:53:03;102798.66;;;8.48;100.00
64340;BME280;63709;53.258;-8.814;2023-04-02T01:55:52;102814.25;;;8.59;100.00
64340;BME280;63709;53.258;-8.814;2023-04-02T01:58:24;102807.13;;;8.60;100.00
64340;BME280;63709;53.258;-8.814;2023-04-02T02:01:05;102799.38;;;8.54;100.00
64340;BME280;63709;53.258;-8.814;2023-04-02T02:03:33;102810.41;;;8.68;100.00
64340;BME280;63709;53.258;-8.814;2023-04-02T02:06:01;102828.03;;;8.72;100.00
64340;BME280;63709;53.258;-8.814;2023-04-02T02:08:38;102824.38;;;8.75;100.00
64340;BME280;63709;53.258;-8.814;2023-04-02T02:11:05;102805.59;;;8.79;100.00
64340;BME280;63709;53.258;-8.814;2023-04-02T02:13:33;102797.91;;;8.70;100.00
64340;BME280;63709;53.258;-8.814;2023-04-02T02:16:00;102810.84;;;8.81;100.00
64340;BME280;63709;53.258;-8.814;2023-04-02T02:18:28;102783.72;;;8.69;100.00
64340;BME280;63709;53.258;-8.814;2023-04-02T02:20:56;102788.09;;;8.72;100.00
64340;BME280;63709;53.258;-8.814;2023-04-02T02:23:22;102752.16;;;8.59;100.00
64340;BME280;63709;53.258;-8.814;2023-04-02T02:25:48;102805.22;;;8.90;100.00
64340;BME280;63709;53.258;-8.814;2023-04-02T02:28:20;102820.72;;;9.02;100.00
64340;BME280;63709;53.258;-8.814;2023-04-02T02:31:13;102804.03;;;8.97;100.00
64340;BME280;63709;53.258;-8.814;2023-04-02T02:33:46;102810.72;;;9.09;100.00
64340;BME280;63709;53.258;-8.814;2023-04-02T02:37:05;102820.25;;;9.16;100.00
64340;BME280;63709;53.258;-8.814;2023-04-02T02:39:31;102811.53;;;9.11;100.00
64340;BME280;63709;53.258;-8.814;2023-04-02T02:42:09;102810.72;;;9.09;100.00
64340;BME280;63709;53.258;-8.814;2023-04-02T02:44:40;102777.00;;;8.84;100.00
64340;BME280;63709;53.258;-8.814;2023-04-02T02:47:14;102804.78;;;9.01;100.00
64340;BME280;63709;53.258;-8.814;2023-04-02T02:49:49;102784.53;;;8.96;100.00
64340;BME280;63709;53.258;-8.814;2023-04-02T02:52:20;102797.34;;;9.10;100.00
64340;BME280;63709;53.258;-8.814;2023-04-02T02:54:51;102786.16;;;9.01;100.00
64340;BME280;63709;53.258;-8.814;2023-04-02T02:57:23;102726.00;;;8.71;100.00
64340;BME280;63709;53.258;-8.814;2023-04-02T02:59:51;102765.94;;;8.95;100.00
64340;BME280;63709;53.258;-8.814;2023-04-02T03:02:20;102708.44;;;8.66;100.00
64340;BME280;63709;53.258;-8.814;2023-04-02T03:04:47;102736.50;;;8.75;100.00
64340;BME280;63709;53.258;-8.814;2023-04-02T03:07:15;102742.75;;;8.73;100.00
64340;BME280;63709;53.258;-8.814;2023-04-02T03:10:08;102774.31;;;8.84;100.00
64340;BME280;63709;53.258;-8.814;2023-04-02T03:18:17;102762.50;;;8.68;100.00
64340;BME280;63709;53.258;-8.814;2023-04-02T03:20:54;102790.13;;;8.89;100.00
64340;BME280;63709;53.258;-8.814;2023-04-02T03:23:42;102792.97;;;8.84;100.00
64340;BME280;63709;53.258;-8.814;2023-04-02T03:26:32;102801.59;;;8.66;100.00
64340;BME280;63709;53.258;-8.814;2023-04-02T03:29:16;102782.38;;;8.58;100.00
64340;BME280;63709;53.258;-8.814;2023-04-02T03:32:06;102788.38;;;8.64;100.00
64340;BME280;63709;53.258;-8.814;2023-04-02T03:34:41;102789.06;;;8.69;100.00
64340;BME280;63709;53.258;-8.814;2023-04-02T03:37:21;102809.16;;;8.78;100.00
64340;BME280;63709;53.258;-8.814;2023-04-02T03:39:54;102800.56;;;8.70;100.00
64340;BME280;63709;53.258;-8.814;2023-04-02T03:42:25;102756.66;;;8.30;100.00
64340;BME280;63709;53.258;-8.814;2023-04-02T03:44:57;102813.56;;;8.54;100.00
64340;BME280;63709;53.258;-8.814;2023-04-02T03:47:37;102809.00;;;8.58;100.00
64340;BME280;63709;53.258;-8.814;2023-04-02T03:52:41;102778.63;;;8.37;100.00
64340;BME280;63709;53.258;-8.814;2023-04-02T03:55:24;102824.41;;;8.48;100.00
64340;BME280;63709;53.258;-8.814;2023-04-02T04:00:58;102820.28;;;8.38;100.00
64340;BME280;63709;53.258;-8.814;2023-04-02T04:03:51;102830.28;;;8.31;100.00
64340;BME280;63709;53.258;-8.814;2023-04-02T04:06:26;102802.41;;;8.15;100.00
64340;BME280;63709;53.258;-8.814;2023-04-02T04:09:21;102826.34;;;8.43;100.00
64340;BME280;63709;53.258;-8.814;2023-04-02T04:11:51;102828.50;;;8.58;100.00
64340;BME280;63709;53.258;-8.814;2023-04-02T04:14:39;102826.69;;;8.59;100.00
64340;BME280;63709;53.258;-8.814;2023-04-02T04:19:51;102819.16;;;8.71;100.00
64340;BME280;63709;53.258;-8.814;2023-04-02T04:22:24;102832.03;;;8.84;100.00
64340;BME280;63709;53.258;-8.814;2023-04-02T04:25:00;102837.91;;;8.93;100.00
64340;BME280;63709;53.258;-8.814;2023-04-02T04:27:37;102853.50;;;9.04;100.00
64340;BME280;63709;53.258;-8.814;2023-04-02T04:30:22;102853.28;;;9.10;100.00
64340;BME280;63709;53.258;-8.814;2023-04-02T04:32:55;102820.91;;;8.98;100.00
64340;BME280;63709;53.258;-8.814;2023-04-02T04:35:37;102852.03;;;9.20;100.00
64340;BME280;63709;53.258;-8.814;2023-04-02T04:38:11;102852.63;;;9.29;100.00
64340;BME280;63709;53.258;-8.814;2023-04-02T04:40:48;102850.78;;;9.31;100.00
64340;BME280;63709;53.258;-8.814;2023-04-02T04:43:36;102843.03;;;9.23;100.00
64340;BME280;63709;53.258;-8.814;2023-04-02T04:46:17;102841.13;;;9.27;100.00
64340;BME280;63709;53.258;-8.814;2023-04-02T04:48:58;102855.09;;;9.33;100.00
64340;BME280;63709;53.258;-8.814;2023-04-02T04:51:42;102830.84;;;9.17;100.00
64340;BME280;63709;53.258;-8.814;2023-04-02T04:54:14;102854.78;;;9.42;100.00
64340;BME280;63709;53.258;-8.814;2023-04-02T04:56:44;102815.41;;;9.26;100.00
64340;BME280;63709;53.258;-8.814;2023-04-02T05:01:46;102838.72;;;9.44;100.00
64340;BME280;63709;53.258;-8.814;2023-04-02T05:09:30;102855.63;;;9.66;100.00
64340;BME280;63709;53.258;-8.814;2023-04-02T05:12:20;102867.16;;;9.67;100.00
64340;BME280;63709;53.258;-8.814;2023-04-02T05:17:37;102854.53;;;9.72;100.00
64340;BME280;63709;53.258;-8.814;2023-04-02T05:25:21;102805.00;;;9.43;100.00
64340;BME280;63709;53.258;-8.814;2023-04-02T05:28:05;102833.56;;;9.63;100.00
64340;BME280;63709;53.258;-8.814;2023-04-02T05:30:40;102862.88;;;9.86;100.00
64340;BME280;63709;53.258;-8.814;2023-04-02T05:33:20;102807.19;;;9.55;100.00
64340;BME280;63709;53.258;-8.814;2023-04-02T05:35:49;102862.00;;;9.86;100.00
64340;BME280;63709;53.258;-8.814;2023-04-02T05:38:26;102842.53;;;9.84;100.00
64340;BME280;63709;53.258;-8.814;2023-04-02T05:43:32;102849.34;;;9.91;100.00
64340;BME280;63709;53.258;-8.814;2023-04-02T05:46:04;102862.31;;;10.00;100.00
64340;BME280;63709;53.258;-8.814;2023-04-02T05:48:38;102865.84;;;10.01;100.00
64340;BME280;63709;53.258;-8.814;2023-04-02T05:51:07;102867.47;;;10.05;100.00
64340;BME280;63709;53.258;-8.814;2023-04-02T05:53:39;102885.13;;;10.09;100.00
64340;BME280;63709;53.258;-8.814;2023-04-02T05:58:58;102835.00;;;9.72;100.00
64340;BME280;63709;53.258;-8.814;2023-04-02T06:01:39;102896.13;;;10.00;100.00
64340;BME280;63709;53.258;-8.814;2023-04-02T06:04:16;102859.22;;;9.89;100.00
64340;BME280;63709;53.258;-8.814;2023-04-02T06:06:50;102903.59;;;10.13;100.00
64340;BME280;63709;53.258;-8.814;2023-04-02T06:12:17;102906.00;;;10.19;100.00
64340;BME280;63709;53.258;-8.814;2023-04-02T06:14:44;102908.56;;;10.23;100.00
64340;BME280;63709;53.258;-8.814;2023-04-02T06:17:15;102865.28;;;9.92;100.00
64340;BME280;63709;53.258;-8.814;2023-04-02T06:19:42;102915.78;;;10.21;100.00
64340;BME280;63709;53.258;-8.814;2023-04-02T06:24:44;102881.22;;;10.17;100.00
64340;BME280;63709;53.258;-8.814;2023-04-02T06:27:14;102888.97;;;10.24;100.00
64340;BME280;63709;53.258;-8.814;2023-04-02T06:29:44;102914.06;;;10.41;100.00
64340;BME280;63709;53.258;-8.814;2023-04-02T06:32:15;102867.00;;;10.17;100.00
64340;BME280;63709;53.258;-8.814;2023-04-02T06:34:41;102920.16;;;10.45;100.00
64340;BME280;63709;53.258;-8.814;2023-04-02T06:39:45;102882.66;;;10.26;100.00
64340;BME280;63709;53.258;-8.814;2023-04-02T06:42:38;102908.13;;;10.35;100.00
64340;BME280;63709;53.258;-8.814;2023-04-02T06:45:13;102921.91;;;10.46;100.00
64340;BME280;63709;53.258;-8.814;2023-04-02T06:47:43;102946.06;;;10.65;100.00
64340;BME280;63709;53.258;-8.814;2023-04-02T06:50:14;102943.19;;;10.70;100.00
64340;BME280;63709;53.258;-8.814;2023-04-02T06:52:54;102936.88;;;10.72;100.00
64340;BME280;63709;53.258;-8.814;2023-04-02T06:58:01;102934.84;;;10.77;100.00
64340;BME280;63709;53.258;-8.814;2023-04-02T07:03:04;102937.16;;;10.86;100.00
64340;BME280;63709;53.258;-8.814;2023-04-02T07:05:31;102931.34;;;10.97;100.00
64340;BME280;63709;53.258;-8.814;2023-04-02T07:07:58;102930.47;;;10.97;100.00
64340;BME280;63709;53.258;-8.814;2023-04-02T07:10:29;102909.41;;;10.89;100.00
64340;BME280;63709;53.258;-8.814;2023-04-02T07:12:54;102934.28;;;11.11;100.00
64340;BME280;63709;53.258;-8.814;2023-04-02T07:15:20;102935.97;;;11.14;100.00
64340;BME280;63709;53.258;-8.814;2023-04-02T07:17:48;102921.00;;;11.10;100.00
64340;BME280;63709;53.258;-8.814;2023-04-02T07:22:53;102924.94;;;11.22;100.00
64340;BME280;63709;53.258;-8.814;2023-04-02T07:25:19;102938.91;;;11.28;100.00
64340;BME280;63709;53.258;-8.814;2023-04-02T07:27:45;102944.53;;;11.43;100.00
64340;BME280;63709;53.258;-8.814;2023-04-02T07:30:11;102924.13;;;11.40;100.00
64340;BME280;63709;53.258;-8.814;2023-04-02T07:32:36;102942.38;;;11.51;100.00
64340;BME280;63709;53.258;-8.814;2023-04-02T07:35:03;102937.53;;;11.59;100.00
64340;BME280;63709;53.258;-8.814;2023-04-02T07:37:29;102943.34;;;11.69;100.00
64340;BME280;63709;53.258;-8.814;2023-04-02T07:39:56;102946.69;;;11.74;100.00
64340;BME280;63709;53.258;-8.814;2023-04-02T07:42:21;102945.09;;;11.70;100.00
64340;BME280;63709;53.258;-8.814;2023-04-02T07:44:48;102940.78;;;11.86;100.00
64340;BME280;63709;53.258;-8.814;2023-04-02T07:47:16;102944.84;;;11.95;100.00
64340;BME280;63709;53.258;-8.814;2023-04-02T07:49:41;102941.09;;;11.99;100.00
64340;BME280;63709;53.258;-8.814;2023-04-02T07:52:07;102936.38;;;12.04;100.00
64340;BME280;63709;53.258;-8.814;2023-04-02T07:54:33;102956.16;;;12.20;100.00
64340;BME280;63709;53.258;-8.814;2023-04-02T07:57:01;102952.81;;;12.15;100.00
64340;BME280;63709;53.258;-8.814;2023-04-02T07:59:26;102958.84;;;12.20;100.00
64340;BME280;63709;53.258;-8.814;2023-04-02T08:01:51;102951.53;;;12.24;100.00
64340;BME280;63709;53.258;-8.814;2023-04-02T08:04:19;102943.81;;;12.16;100.00
64340;BME280;63709;53.258;-8.814;2023-04-02T08:06:47;102965.47;;;12.30;100.00
64340;BME280;63709;53.258;-8.814;2023-04-02T08:09:14;102967.28;;;12.30;100.00
64340;BME280;63709;53.258;-8.814;2023-04-02T08:11:40;102974.31;;;12.32;100.00
64340;BME280;63709;53.258;-8.814;2023-04-02T08:14:10;102973.34;;;12.33;100.00
64340;BME280;63709;53.258;-8.814;2023-04-02T08:16:51;102970.03;;;12.09;100.00
64340;BME280;63709;53.258;-8.814;2023-04-02T08:19:17;102971.78;;;12.29;100.00
64340;BME280;63709;53.258;-8.814;2023-04-02T08:21:43;102977.47;;;12.41;100.00
64340;BME280;63709;53.258;-8.814;2023-04-02T08:24:10;102963.72;;;12.48;100.00
64340;BME280;63709;53.258;-8.814;2023-04-02T08:26:36;102962.31;;;12.58;100.00
64340;BME280;63709;53.258;-8.814;2023-04-02T08:29:02;102977.03;;;12.86;100.00
64340;BME280;63709;53.258;-8.814;2023-04-02T08:31:29;102976.03;;;13.06;100.00
64340;BME280;63709;53.258;-8.814;2023-04-02T08:33:55;102981.31;;;13.07;100.00
64340;BME280;63709;53.258;-8.814;2023-04-02T08:36:28;102981.53;;;12.86;100.00
64340;BME280;63709;53.258;-8.814;2023-04-02T08:38:54;102985.59;;;12.94;100.00
64340;BME280;63709;53.258;-8.814;2023-04-02T08:41:22;102992.91;;;13.08;100.00
64340;BME280;63709;53.258;-8.814;2023-04-02T08:46:45;102964.94;;;13.14;100.00
64340;BME280;63709;53.258;-8.814;2023-04-02T08:49:17;102984.75;;;13.28;100.00
64340;BME280;63709;53.258;-8.814;2023-04-02T08:51:45;102978.19;;;13.17;100.00
64340;BME280;63709;53.258;-8.814;2023-04-02T08:54:30;102984.03;;;13.25;100.00
64340;BME280;63709;53.258;-8.814;2023-04-02T08:57:01;102995.19;;;13.16;100.00
64340;BME280;63709;53.258;-8.814;2023-04-02T08:59:35;102991.84;;;13.47;100.00
64340;BME280;63709;53.258;-8.814;2023-04-02T09:02:31;102996.91;;;13.36;100.00
64340;BME280;63709;53.258;-8.814;2023-04-02T09:05:03;102996.81;;;13.54;100.00
64340;BME280;63709;53.258;-8.814;2023-04-02T09:07:33;102981.72;;;13.52;100.00
64340;BME280;63709;53.258;-8.814;2023-04-02T09:09:59;102996.00;;;13.70;100.00
64340;BME280;63709;53.258;-8.814;2023-04-02T09:12:28;102978.63;;;13.60;100.00
64340;BME280;63709;53.258;-8.814;2023-04-02T09:15:21;103000.94;;;13.77;100.00
64340;BME280;63709;53.258;-8.814;2023-04-02T09:17:56;102993.38;;;14.01;100.00
64340;BME280;63709;53.258;-8.814;2023-04-02T09:20:25;102980.78;;;13.86;100.00
64340;BME280;63709;53.258;-8.814;2023-04-02T09:22:52;102991.31;;;14.07;100.00
64340;BME280;63709;53.258;-8.814;2023-04-02T09:25:25;102986.56;;;14.27;100.00
64340;BME280;63709;53.258;-8.814;2023-04-02T09:28:01;102973.22;;;14.26;100.00
64340;BME280;63709;53.258;-8.814;2023-04-02T09:33:44;102985.91;;;14.56;100.00
64340;BME280;63709;53.258;-8.814;2023-04-02T09:39:15;102986.19;;;14.51;100.00
64340;BME280;63709;53.258;-8.814;2023-04-02T09:41:41;102988.50;;;14.73;100.00
64340;BME280;63709;53.258;-8.814;2023-04-02T09:44:27;102981.66;;;14.83;100.00
64340;BME280;63709;53.258;-8.814;2023-04-02T09:47:01;102989.78;;;14.82;100.00
64340;BME280;63709;53.258;-8.814;2023-04-02T09:49:37;102988.66;;;14.86;100.00
64340;BME280;63709;53.258;-8.814;2023-04-02T09:52:15;102976.78;;;14.74;100.00
64340;BME280;63709;53.258;-8.814;2023-04-02T09:54:42;102972.94;;;14.94;100.00
64340;BME280;63709;53.258;-8.814;2023-04-02T09:57:21;102945.72;;;15.14;100.00
64340;BME280;63709;53.258;-8.814;2023-04-02T10:00:19;102983.19;;;15.62;100.00
64340;BME280;63709;53.258;-8.814;2023-04-02T10:03:06;102974.00;;;15.66;100.00
64340;BME280;63709;53.258;-8.814;2023-04-02T10:05:39;102965.56;;;15.42;100.00
64340;BME280;63709;53.258;-8.814;2023-04-02T10:08:16;102961.97;;;15.27;100.00
64340;BME280;63709;53.258;-8.814;2023-04-02T10:10:47;102949.63;;;15.39;100.00
64340;BME280;63709;53.258;-8.814;2023-04-02T10:16:49;102937.25;;;15.79;100.00
64340;BME280;63709;53.258;-8.814;2023-04-02T10:21:46;102956.59;;;15.71;100.00
64340;BME280;63709;53.258;-8.814;2023-04-02T10:24:15;102972.25;;;15.79;100.00
64340;BME280;63709;53.258;-8.814;2023-04-02T10:26:59;102975.25;;;15.89;100.00
64340;BME280;63709;53.258;-8.814;2023-04-02T10:35:02;102962.47;;;15.92;100.00
64340;BME280;63709;53.258;-8.814;2023-04-02T10:45:51;102968.63;;;15.66;100.00
64340;BME280;63709;53.258;-8.814;2023-04-02T10:51:05;102951.00;;;15.75;100.00
64340;BME280;63709;53.258;-8.814;2023-04-02T10:53:48;102929.44;;;16.17;100.00
64340;BME280;63709;53.258;-8.814;2023-04-02T10:56:18;102951.44;;;16.65;88.61
64340;BME280;63709;53.258;-8.814;2023-04-02T10:59:05;102950.13;;;16.98;86.25
64340;BME280;63709;53.258;-8.814;2023-04-02T11:01:35;102921.56;;;17.08;88.75
64340;BME280;63709;53.258;-8.814;2023-04-02T11:04:13;102939.81;;;17.17;82.54
64340;BME280;63709;53.258;-8.814;2023-04-02T11:06:46;102937.91;;;17.32;77.24
64340;BME280;63709;53.258;-8.814;2023-04-02T11:09:16;102923.78;;;16.76;76.17
64340;BME280;63709;53.258;-8.814;2023-04-02T11:11:46;102935.13;;;16.94;81.57
64340;BME280;63709;53.258;-8.814;2023-04-02T11:14:19;102945.44;;;17.14;83.71
64340;BME280;63709;53.258;-8.814;2023-04-02T11:16:52;102942.97;;;17.37;78.15
64340;BME280;63709;53.258;-8.814;2023-04-02T11:19:30;102941.56;;;17.44;80.16
64340;BME280;63709;53.258;-8.814;2023-04-02T11:24:40;102930.44;;;17.61;74.00
64340;BME280;63709;53.258;-8.814;2023-04-02T11:29:57;102945.88;;;17.34;73.74
64340;BME280;63709;53.258;-8.814;2023-04-02T11:32:32;102939.59;;;17.46;72.50
64340;BME280;63709;53.258;-8.814;2023-04-02T11:35:01;102940.13;;;17.13;70.39
64340;BME280;63709;53.258;-8.814;2023-04-02T11:37:43;102936.63;;;16.98;72.36
64340;BME280;63709;53.258;-8.814;2023-04-02T11:42:42;102943.06;;;17.23;79.83
64340;BME280;63709;53.258;-8.814;2023-04-02T11:50:32;102929.78;;;17.71;77.62
64340;BME280;63709;53.258;-8.814;2023-04-02T11:53:47;102924.69;;;17.15;75.63
64340;BME280;63709;53.258;-8.814;2023-04-02T12:05:02;102920.84;;;17.32;82.62
64340;BME280;63709;53.258;-8.814;2023-04-02T12:08:13;102922.34;;;17.61;77.66
64340;BME280;63709;53.258;-8.814;2023-04-02T12:10:51;102923.72;;;17.67;77.24
64340;BME280;63709;53.258;-8.814;2023-04-02T12:16:10;102920.31;;;18.14;82.43
64340;BME280;63709;53.258;-8.814;2023-04-02T12:18:47;102909.84;;;18.34;72.12
64340;BME280;63709;53.258;-8.814;2023-04-02T12:21:21;102923.09;;;18.50;73.09
64340;BME280;63709;53.258;-8.814;2023-04-02T12:23:51;102936.16;;;18.56;70.34
64340;BME280;63709;53.258;-8.814;2023-04-02T12:26:34;102929.13;;;18.53;69.74
64340;BME280;63709;53.258;-8.814;2023-04-02T12:31:52;102916.09;;;18.47;70.62
64340;BME280;63709;53.258;-8.814;2023-04-02T12:34:20;102920.06;;;18.54;70.62
64340;BME280;63709;53.258;-8.814;2023-04-02T12:37:00;102916.09;;;18.47;74.30
64340;BME280;63709;53.258;-8.814;2023-04-02T12:39:32;102911.47;;;18.60;68.13
64340;BME280;63709;53.258;-8.814;2023-04-02T12:41:59;102917.72;;;18.61;65.91
64340;BME280;63709;53.258;-8.814;2023-04-02T12:44:27;102909.41;;;18.40;63.96
64340;BME280;63709;53.258;-8.814;2023-04-02T12:46:54;102904.56;;;18.56;63.46
64340;BME280;63709;53.258;-8.814;2023-04-02T12:49:33;102913.38;;;18.71;68.99
64340;BME280;63709;53.258;-8.814;2023-04-02T12:52:03;102910.09;;;18.79;69.61
64340;BME280;63709;53.258;-8.814;2023-04-02T12:54:35;102903.50;;;18.94;64.52
64340;BME280;63709;53.258;-8.814;2023-04-02T12:59:52;102912.75;;;18.92;61.96
64340;BME280;63709;53.258;-8.814;2023-04-02T13:02:23;102908.97;;;19.17;63.02
64340;BME280;63709;53.258;-8.814;2023-04-02T13:04:51;102901.16;;;19.36;63.74
64340;BME280;63709;53.258;-8.814;2023-04-02T13:07:19;102907.41;;;19.37;58.68
64340;BME280;63709;53.258;-8.814;2023-04-02T13:09:51;102890.56;;;19.44;58.63
64340;BME280;63709;53.258;-8.814;2023-04-02T13:12:36;102891.28;;;19.46;59.19
64340;BME280;63709;53.258;-8.814;2023-04-02T13:15:17;102886.97;;;19.32;59.41
64340;BME280;63709;53.258;-8.814;2023-04-02T13:17:46;102905.81;;;19.34;60.21
64340;BME280;63709;53.258;-8.814;2023-04-02T13:23:00;102918.34;;;19.35;55.78
64340;BME280;63709;53.258;-8.814;2023-04-02T13:25:31;102898.69;;;19.33;57.31
64340;BME280;63709;53.258;-8.814;2023-04-02T13:27:59;102900.75;;;19.29;56.99
64340;BME280;63709;53.258;-8.814;2023-04-02T13:30:27;102904.72;;;19.37;57.78
64340;BME280;63709;53.258;-8.814;2023-04-02T13:32:54;102899.38;;;19.13;58.67
64340;BME280;63709;53.258;-8.814;2023-04-02T13:35:20;102864.34;;;18.87;57.74
64340;BME280;63709;53.258;-8.814;2023-04-02T13:37:46;102891.41;;;18.87;58.83
64340;BME280;63709;53.258;-8.814;2023-04-02T13:40:13;102892.66;;;18.83;57.55
64340;BME280;63709;53.258;-8.814;2023-04-02T13:42:44;102880.38;;;18.90;58.03
64340;BME280;63709;53.258;-8.814;2023-04-02T13:45:25;102899.84;;;18.95;60.44
64340;BME280;63709;53.258;-8.814;2023-04-02T13:47:52;102902.00;;;18.90;57.27
64340;BME280;63709;53.258;-8.814;2023-04-02T13:50:20;102902.81;;;19.03;58.69
64340;BME280;63709;53.258;-8.814;2023-04-02T13:52:49;102911.41;;;19.08;58.54
64340;BME280;63709;53.258;-8.814;2023-04-02T13:55:16;102891.00;;;19.16;57.52
64340;BME280;63709;53.258;-8.814;2023-04-02T13:57:43;102905.06;;;19.21;58.82
64340;BME280;63709;53.258;-8.814;2023-04-02T14:00:10;102896.66;;;19.13;55.53
64340;BME280;63709;53.258;-8.814;2023-04-02T14:02:40;102893.47;;;19.07;55.07
64340;BME280;63709;53.258;-8.814;2023-04-02T14:05:44;102897.63;;;19.00;57.78
64340;BME280;63709;53.258;-8.814;2023-04-02T14:28:14;102870.31;;;19.03;56.54
64340;BME280;63709;53.258;-8.814;2023-04-02T14:31:01;102869.53;;;18.90;55.79
64340;BME280;63709;53.258;-8.814;2023-04-02T14:33:58;102846.28;;;18.76;59.18
64340;BME280;63709;53.258;-8.814;2023-04-02T14:39:40;102841.22;;;18.48;61.74
64340;BME280;63709;53.258;-8.814;2023-04-02T14:42:21;102856.28;;;18.39;64.23
64340;BME280;63709;53.258;-8.814;2023-04-02T14:45:07;102849.97;;;18.51;64.94
64340;BME280;63709;53.258;-8.814;2023-04-02T14:47:58;102846.78;;;18.57;63.55
64340;BME280;63709;53.258;-8.814;2023-04-02T14:50:34;102845.06;;;18.56;63.34
64340;BME280;63709;53.258;-8.814;2023-04-02T14:53:13;102823.59;;;18.42;65.75
64340;BME280;63709;53.258;-8.814;2023-04-02T14:55:42;102851.19;;;18.47;63.30
64340;BME280;63709;53.258;-8.814;2023-04-02T14:58:50;102854.16;;;18.31;62.96
64340;BME280;63709;53.258;-8.814;2023-04-02T15:01:30;102837.16;;;18.18;67.35
64340;BME280;63709;53.258;-8.814;2023-04-02T15:04:03;102842.22;;;18.23;68.75
64340;BME280;63709;53.258;-8.814;2023-04-02T15:06:37;102846.34;;;18.16;72.19
64340;BME280;63709;53.258;-8.814;2023-04-02T15:09:27;102843.22;;;18.09;68.73
64340;BME280;63709;53.258;-8.814;2023-04-02T15:12:09;102837.38;;;17.91;70.37
64340;BME280;63709;53.258;-8.814;2023-04-02T15:14:53;102830.75;;;18.19;70.97
64340;BME280;63709;53.258;-8.814;2023-04-02T15:17:21;102825.75;;;18.02;72.45
64340;BME280;63709;53.258;-8.814;2023-04-02T15:19:48;102833.47;;;18.19;72.94
64340;BME280;63709;53.258;-8.814;2023-04-02T15:22:30;102835.94;;;18.22;72.05
64340;BME280;63709;53.258;-8.814;2023-04-02T15:25:09;102827.16;;;18.07;72.58
64340;BME280;63709;53.258;-8.814;2023-04-02T15:30:36;102794.81;;;17.82;74.48
64340;BME280;63709;53.258;-8.814;2023-04-02T15:35:51;102824.94;;;17.88;74.25
64340;BME280;63709;53.258;-8.814;2023-04-02T15:38:23;102821.50;;;17.74;71.48
64340;BME280;63709;53.258;-8.814;2023-04-02T15:40:55;102815.22;;;17.86;72.80
64340;BME280;63709;53.258;-8.814;2023-04-02T15:44:14;102794.72;;;17.71;76.09
64340;BME280;63709;53.258;-8.814;2023-04-02T15:48:54;102807.75;;;17.89;73.14
64340;BME280;63709;53.258;-8.814;2023-04-02T16:10:32;102787.47;;;17.84;67.16
64340;BME280;63709;53.258;-8.814;2023-04-02T16:12:59;102771.72;;;17.78;67.02
64340;BME280;63709;53.258;-8.814;2023-04-02T16:15:41;102788.25;;;17.97;70.47
64340;BME280;63709;53.258;-8.814;2023-04-02T16:18:23;102776.41;;;18.11;70.96
64340;BME280;63709;53.258;-8.814;2023-04-02T16:20:53;102779.75;;;18.14;69.29
64340;BME280;63709;53.258;-8.814;2023-04-02T16:23:28;102775.25;;;18.26;69.63
64340;BME280;63709;53.258;-8.814;2023-04-02T16:29:07;102775.72;;;18.55;70.94
64340;BME280;63709;53.258;-8.814;2023-04-02T16:42:38;102767.28;;;18.25;72.20
64340;BME280;63709;53.258;-8.814;2023-04-02T16:50:31;102776.88;;;17.81;71.67
64340;BME280;63709;53.258;-8.814;2023-04-02T16:53:09;102779.94;;;17.76;73.72